createdAt,value
2019-02-10T00:00:18.007Z,6.80
2019-02-10T00:02:46.850Z,6.90
2019-02-10T00:05:15.720Z,6.90
2019-02-10T00:07:44.563Z,6.90
2019-02-10T00:10:13.403Z,6.90
2019-02-10T00:12:42.271Z,6.90
2019-02-10T00:15:11.112Z,6.90
2019-02-10T00:17:39.960Z,6.90
2019-02-10T00:20:08.805Z,7.00
2019-02-10T00:22:37.657Z,7.00
2019-02-10T00:27:36.992Z,6.90
2019-02-10T00:30:05.861Z,7.00
2019-02-10T00:32:34.674Z,7.00
2019-02-10T00:35:09.893Z,7.00
2019-02-10T00:37:35.048Z,7.00
2019-02-10T00:40:05.421Z,6.90
2019-02-10T00:42:34.246Z,6.90
2019-02-10T00:45:03.093Z,7.00
2019-02-10T00:47:31.940Z,6.90
2019-02-10T00:50:00.778Z,6.90
2019-02-10T00:52:30.381Z,6.90
2019-02-10T00:54:59.227Z,6.90
2019-02-10T00:57:28.105Z,6.90
2019-02-10T00:59:56.958Z,6.80
2019-02-10T01:04:55.963Z,6.70
2019-02-10T01:07:26.047Z,6.70
2019-02-10T01:09:56.383Z,6.60
2019-02-10T01:12:25.227Z,6.60
2019-02-10T01:14:54.075Z,6.60
2019-02-10T01:17:22.925Z,6.60
2019-02-10T01:19:51.773Z,6.60
2019-02-10T01:22:20.684Z,6.60
2019-02-10T01:24:49.466Z,6.60
2019-02-10T01:27:19.051Z,6.60
2019-02-10T01:29:53.968Z,6.60
2019-02-10T01:32:24.748Z,6.60
2019-02-10T01:34:53.301Z,6.60
2019-02-10T01:37:22.152Z,6.50
2019-02-10T01:39:51.010Z,6.60
2019-02-10T01:42:19.860Z,6.60
2019-02-10T01:44:48.829Z,6.60
2019-02-10T01:47:17.629Z,6.50
2019-02-10T01:49:46.481Z,6.50
2019-02-10T01:52:15.356Z,6.50
2019-02-10T01:54:44.199Z,6.50
2019-02-10T01:57:13.045Z,6.40
2019-02-10T01:59:41.878Z,6.40
2019-02-10T02:02:11.264Z,6.40
2019-02-10T02:04:40.100Z,6.40
2019-02-10T02:07:08.958Z,6.40
2019-02-10T02:09:37.792Z,6.50
2019-02-10T02:12:06.622Z,6.50
2019-02-10T02:14:35.466Z,6.50
2019-02-10T02:17:05.522Z,6.50
2019-02-10T02:19:34.370Z,6.50
2019-02-10T02:22:03.218Z,6.50
2019-02-10T02:24:32.056Z,6.40
2019-02-10T02:27:01.172Z,6.50
2019-02-10T02:29:29.726Z,6.50
2019-02-10T02:31:58.569Z,6.40
2019-02-10T02:34:27.410Z,6.50
2019-02-10T02:36:56.254Z,6.40
2019-02-10T02:39:27.072Z,6.50
2019-02-10T02:41:55.904Z,6.40
2019-02-10T02:44:26.464Z,6.40
2019-02-10T02:46:55.854Z,6.40
2019-02-10T02:49:24.687Z,6.40
2019-02-10T02:51:53.524Z,6.40
2019-02-10T02:54:23.187Z,6.40
2019-02-10T02:56:51.999Z,6.40
2019-02-10T02:59:20.855Z,6.40
2019-02-10T03:01:49.832Z,6.40
2019-02-10T03:04:18.589Z,6.40
2019-02-10T03:06:47.437Z,6.40
2019-02-10T03:09:16.283Z,6.40
2019-02-10T03:11:45.114Z,6.40
2019-02-10T03:14:13.950Z,6.40
2019-02-10T03:16:42.786Z,6.40
2019-02-10T03:19:11.640Z,6.40
2019-02-10T03:21:40.484Z,6.50
2019-02-10T03:24:09.314Z,6.50
2019-02-10T03:26:38.146Z,6.50
2019-02-10T03:29:06.995Z,6.50
2019-02-10T03:31:35.888Z,6.50
2019-02-10T03:34:04.711Z,6.50
2019-02-10T03:36:34.022Z,6.60
2019-02-10T03:39:02.886Z,6.50
2019-02-10T03:41:31.712Z,6.60
2019-02-10T03:44:00.551Z,6.60
2019-02-10T03:46:29.414Z,6.60
2019-02-10T03:48:58.994Z,6.60
2019-02-10T03:53:57.269Z,6.60
2019-02-10T03:56:26.135Z,6.60
2019-02-10T03:58:54.978Z,6.60
2019-02-10T04:01:23.810Z,6.60
2019-02-10T04:03:52.650Z,6.70
2019-02-10T04:06:22.265Z,6.70
2019-02-10T04:08:51.072Z,6.70
2019-02-10T04:11:19.911Z,6.70
2019-02-10T04:13:48.766Z,6.70
2019-02-10T04:16:18.727Z,6.70
2019-02-10T04:18:47.556Z,6.70
2019-02-10T04:21:16.390Z,6.70
2019-02-10T04:23:45.232Z,6.70
2019-02-10T04:26:14.080Z,6.70
2019-02-10T04:28:42.925Z,6.80
2019-02-10T04:31:11.762Z,6.70
2019-02-10T04:33:40.630Z,6.70
2019-02-10T04:36:09.448Z,6.70
2019-02-10T04:38:38.326Z,6.70
2019-02-10T04:41:07.146Z,6.70
2019-02-10T04:43:36.723Z,6.70
2019-02-10T04:46:05.595Z,6.70
2019-02-10T04:48:35.392Z,6.70
2019-02-10T04:51:04.232Z,6.70
2019-02-10T04:53:34.949Z,6.70
2019-02-10T04:58:48.704Z,6.80
2019-02-10T05:01:17.541Z,6.70
2019-02-10T05:03:46.369Z,6.80
2019-02-10T05:06:15.218Z,6.80
2019-02-10T05:08:44.052Z,6.80
2019-02-10T05:11:13.355Z,6.80
2019-02-10T05:13:42.198Z,6.80
2019-02-10T05:16:11.054Z,6.80
2019-02-10T05:18:39.869Z,6.80
2019-02-10T05:21:08.704Z,6.80
2019-02-10T05:23:37.562Z,6.80
2019-02-10T05:26:06.466Z,6.90
2019-02-10T05:28:35.267Z,6.90
2019-02-10T05:31:04.097Z,6.80
2019-02-10T05:33:32.934Z,6.90
2019-02-10T05:36:01.768Z,6.90
2019-02-10T05:38:31.354Z,6.90
2019-02-10T05:41:00.179Z,6.90
2019-02-10T05:43:29.016Z,6.90
2019-02-10T05:45:57.848Z,6.90
2019-02-10T05:48:26.688Z,6.90
2019-02-10T05:50:56.372Z,6.90
2019-02-10T05:53:25.219Z,6.90
2019-02-10T05:55:54.301Z,6.90
2019-02-10T05:58:23.119Z,6.90
2019-02-10T06:00:51.967Z,6.90
2019-02-10T06:03:20.799Z,6.90
2019-02-10T06:05:49.640Z,6.90
2019-02-10T06:08:18.481Z,6.80
2019-02-10T06:10:47.328Z,6.90
2019-02-10T06:13:16.234Z,6.90
2019-02-10T06:15:45.827Z,6.90
2019-02-10T06:18:14.745Z,6.80
2019-02-10T06:20:44.355Z,6.90
2019-02-10T06:23:13.934Z,6.90
2019-02-10T06:28:12.232Z,6.90
2019-02-10T06:30:41.061Z,6.90
2019-02-10T06:33:09.913Z,6.90
2019-02-10T06:35:38.773Z,6.90
2019-02-10T06:38:07.632Z,6.90
2019-02-10T06:40:36.502Z,6.90
2019-02-10T06:43:06.080Z,6.90
2019-02-10T06:45:34.919Z,6.90
2019-02-10T06:48:03.780Z,7.00
2019-02-10T06:50:33.380Z,6.90
2019-02-10T06:53:02.209Z,6.90
2019-02-10T06:55:31.064Z,7.00
2019-02-10T06:58:00.642Z,6.90
2019-02-10T07:00:29.481Z,6.90
2019-02-10T07:03:16.290Z,6.90
2019-02-10T07:05:45.127Z,6.90
2019-02-10T07:08:13.963Z,7.00
2019-02-10T07:10:42.806Z,7.00
2019-02-10T07:13:11.656Z,7.00
2019-02-10T07:15:58.521Z,7.00
2019-02-10T07:18:45.340Z,7.10
2019-02-10T07:21:14.924Z,7.20
2019-02-10T07:23:54.309Z,7.20
2019-02-10T07:26:23.156Z,7.30
2019-02-10T07:28:52.005Z,7.30
2019-02-10T07:31:20.839Z,7.30
2019-02-10T07:33:58.508Z,7.30
2019-02-10T07:39:12.301Z,7.40
2019-02-10T07:41:50.721Z,7.40
2019-02-10T07:44:27.416Z,7.50
2019-02-10T07:49:57.694Z,7.60
2019-02-10T07:52:36.037Z,7.70
2019-02-10T07:55:09.541Z,7.70
2019-02-10T07:57:46.523Z,7.80
2019-02-10T08:02:57.661Z,7.80
2019-02-10T08:05:33.104Z,7.90
2019-02-10T08:08:08.179Z,7.90
2019-02-10T08:10:51.449Z,7.80
2019-02-10T08:13:21.140Z,7.70
2019-02-10T08:15:56.818Z,7.70
2019-02-10T08:18:32.799Z,7.80
2019-02-10T08:23:55.614Z,7.80
2019-02-10T08:26:34.219Z,7.80
2019-02-10T08:29:09.638Z,7.80
2019-02-10T08:31:42.982Z,7.80
2019-02-10T08:34:16.309Z,7.70
2019-02-10T08:39:31.395Z,7.90
2019-02-10T08:44:49.032Z,7.90
2019-02-10T08:47:33.801Z,7.90
2019-02-10T08:50:04.673Z,8.00
2019-02-10T08:55:17.055Z,8.10
2019-02-10T08:57:45.861Z,8.10
2019-02-10T09:00:14.727Z,8.20
2019-02-10T09:02:43.593Z,8.20
2019-02-10T09:05:12.426Z,8.20
2019-02-10T09:07:41.259Z,8.20
2019-02-10T09:10:11.015Z,8.30
2019-02-10T09:12:39.864Z,8.30
2019-02-10T09:15:08.753Z,8.40
2019-02-10T09:17:37.635Z,8.50
2019-02-10T09:20:07.261Z,8.70
2019-02-10T09:22:36.106Z,8.80
2019-02-10T09:25:04.953Z,8.90
2019-02-10T09:27:33.801Z,9.10
2019-02-10T09:30:02.633Z,9.30
2019-02-10T09:32:31.488Z,9.50
2019-02-10T09:35:00.336Z,9.80
2019-02-10T09:37:29.178Z,10.20
2019-02-10T09:39:58.026Z,10.20
2019-02-10T09:42:26.891Z,10.40
2019-02-10T09:44:55.743Z,10.40
2019-02-10T09:47:24.608Z,10.60
2019-02-10T09:49:53.452Z,10.70
2019-02-10T09:52:22.301Z,10.80
2019-02-10T09:54:51.162Z,11.00
2019-02-10T09:57:20.037Z,11.10
2019-02-10T09:59:48.960Z,11.20
2019-02-10T10:02:17.807Z,11.30
2019-02-10T10:04:46.667Z,11.30
2019-02-10T10:07:15.523Z,11.40
2019-02-10T10:09:44.373Z,11.50
2019-02-10T10:12:13.245Z,11.60
2019-02-10T10:14:42.206Z,11.60
2019-02-10T10:17:11.849Z,11.50
2019-02-10T10:20:36.910Z,11.70
2019-02-10T10:23:05.764Z,11.70
2019-02-10T10:25:34.608Z,11.80
2019-02-10T10:28:03.486Z,11.80
2019-02-10T10:30:32.387Z,11.80
2019-02-10T10:33:01.989Z,11.90
2019-02-10T10:35:30.845Z,12.00
2019-02-10T10:37:59.691Z,12.00
2019-02-10T10:40:28.525Z,12.00
2019-02-10T10:42:57.387Z,12.10
2019-02-10T10:45:26.233Z,12.10
2019-02-10T10:47:55.075Z,12.10
2019-02-10T10:50:23.924Z,12.10
2019-02-10T10:52:52.782Z,12.10
2019-02-10T10:55:21.633Z,12.00
2019-02-10T10:57:50.491Z,12.00
2019-02-10T11:00:19.335Z,12.00
2019-02-10T11:02:48.189Z,12.00
2019-02-10T11:05:17.046Z,11.90
2019-02-10T11:07:46.638Z,11.80
2019-02-10T11:10:15.507Z,11.80
2019-02-10T11:12:44.396Z,11.80
2019-02-10T11:15:13.268Z,11.70
2019-02-10T11:17:42.091Z,11.70
2019-02-10T11:20:10.937Z,11.70
2019-02-10T11:22:39.819Z,11.70
2019-02-10T11:25:09.415Z,11.60
2019-02-10T11:27:38.276Z,11.60
2019-02-10T11:32:46.436Z,11.60
2019-02-10T11:35:16.037Z,11.60
2019-02-10T11:37:45.606Z,11.60
2019-02-10T11:40:14.460Z,11.60
2019-02-10T11:42:43.338Z,11.60
2019-02-10T11:45:12.156Z,11.50
2019-02-10T11:47:41.018Z,11.40
2019-02-10T11:50:10.665Z,11.40
2019-02-10T11:52:39.521Z,11.40
2019-02-10T11:55:08.400Z,11.30
2019-02-10T11:57:37.290Z,11.30
2019-02-10T12:00:10.642Z,11.20
2019-02-10T12:02:39.502Z,11.10
2019-02-10T12:05:08.355Z,11.00
2019-02-10T12:07:37.196Z,10.90
2019-02-10T12:10:07.700Z,10.80
2019-02-10T12:12:36.597Z,10.70
2019-02-10T12:15:05.455Z,10.60
2019-02-10T12:17:34.348Z,10.50
2019-02-10T12:20:03.178Z,10.40
2019-02-10T12:22:32.067Z,10.30
2019-02-10T12:25:00.930Z,10.30
2019-02-10T12:27:29.774Z,10.20
2019-02-10T12:29:58.634Z,10.20
2019-02-10T12:32:27.508Z,10.10
2019-02-10T12:34:56.414Z,10.10
2019-02-10T12:37:32.188Z,10.10
2019-02-10T12:39:59.631Z,10.00
2019-02-10T12:42:22.987Z,10.00
2019-02-10T12:44:51.858Z,10.00
2019-02-10T12:47:20.691Z,9.90
2019-02-10T12:49:49.597Z,10.00
2019-02-10T12:52:18.410Z,10.00
2019-02-10T12:54:47.268Z,10.00
2019-02-10T12:57:16.115Z,10.00
2019-02-10T12:59:44.954Z,10.10
2019-02-10T13:02:13.818Z,10.10
2019-02-10T13:04:42.643Z,10.10
2019-02-10T13:07:11.497Z,10.10
2019-02-10T13:09:41.274Z,10.10
2019-02-10T13:12:10.123Z,10.20
2019-02-10T13:14:38.968Z,10.20
2019-02-10T13:17:07.834Z,10.20
2019-02-10T13:19:36.701Z,10.20
2019-02-10T13:22:06.296Z,10.30
2019-02-10T13:24:35.078Z,10.30
2019-02-10T13:27:04.013Z,10.30
2019-02-10T13:29:32.863Z,10.30
2019-02-10T13:32:01.732Z,10.30
2019-02-10T13:34:31.604Z,10.20
2019-02-10T13:37:00.436Z,10.20
2019-02-10T13:39:29.296Z,10.20
2019-02-10T13:41:58.145Z,10.20
2019-02-10T13:44:27.020Z,10.20
2019-02-10T13:46:56.600Z,10.20
2019-02-10T13:49:25.461Z,10.20
2019-02-10T13:51:54.341Z,10.20
2019-02-10T13:54:23.219Z,10.20
2019-02-10T13:56:52.031Z,10.20
2019-02-10T13:59:20.917Z,10.20
2019-02-10T14:01:49.767Z,10.20
2019-02-10T14:04:18.640Z,10.10
2019-02-10T14:06:48.286Z,10.10
2019-02-10T14:09:17.155Z,10.00
2019-02-10T14:11:46.027Z,9.80
2019-02-10T14:14:14.834Z,9.70
2019-02-10T14:16:43.684Z,9.60
2019-02-10T14:19:12.552Z,9.50
2019-02-10T14:21:41.574Z,9.50
2019-02-10T14:24:10.414Z,9.30
2019-02-10T14:26:39.288Z,9.30
2019-02-10T14:29:08.860Z,9.20
2019-02-10T14:31:37.733Z,9.10
2019-02-10T14:34:06.584Z,9.10
2019-02-10T14:36:35.447Z,9.00
2019-02-10T14:39:05.025Z,8.90
2019-02-10T14:41:33.882Z,8.80
2019-02-10T14:44:02.768Z,8.70
2019-02-10T14:46:31.634Z,8.70
2019-02-10T14:49:00.471Z,8.70
2019-02-10T14:51:29.611Z,8.70
2019-02-10T14:53:58.481Z,8.70
2019-02-10T14:56:28.102Z,8.60
2019-02-10T14:58:57.022Z,8.70
2019-02-10T15:01:25.847Z,8.60
2019-02-10T15:03:54.665Z,8.60
2019-02-10T15:06:23.506Z,8.60
2019-02-10T15:08:52.384Z,8.60
2019-02-10T15:11:21.284Z,8.50
2019-02-10T15:13:50.135Z,8.40
2019-02-10T15:16:19.024Z,8.40
2019-02-10T15:18:47.868Z,8.40
2019-02-10T15:21:16.734Z,8.40
2019-02-10T15:23:45.664Z,8.40
2019-02-10T15:26:14.528Z,8.40
2019-02-10T15:28:43.369Z,8.30
2019-02-10T15:31:12.255Z,8.30
2019-02-10T15:33:41.080Z,8.20
2019-02-10T15:36:09.956Z,8.20
2019-02-10T15:38:38.850Z,8.10
2019-02-10T15:41:09.559Z,8.10
2019-02-10T15:46:07.862Z,8.20
2019-02-10T15:48:36.727Z,8.10
2019-02-10T15:51:05.542Z,8.10
2019-02-10T15:53:35.822Z,8.10
2019-02-10T15:56:04.681Z,8.00
2019-02-10T15:58:33.544Z,8.00
2019-02-10T16:01:02.388Z,8.10
2019-02-10T16:03:31.285Z,8.00
2019-02-10T16:06:00.137Z,8.10
2019-02-10T16:08:29.060Z,8.00
2019-02-10T16:10:58.537Z,8.00
2019-02-10T16:13:26.748Z,8.00
2019-02-10T16:15:56.333Z,8.00
2019-02-10T16:18:25.206Z,8.00
2019-02-10T16:20:54.066Z,8.00
2019-02-10T16:23:22.901Z,8.00
2019-02-10T16:25:51.748Z,7.90
2019-02-10T16:28:20.585Z,7.90
2019-02-10T16:30:49.445Z,7.90
2019-02-10T16:33:18.285Z,7.90
2019-02-10T16:35:47.888Z,7.90
2019-02-10T16:38:16.890Z,7.90
2019-02-10T16:40:46.461Z,7.90
2019-02-10T16:43:15.316Z,7.90
2019-02-10T16:45:44.167Z,7.90
2019-02-10T16:48:14.323Z,7.80
2019-02-10T16:50:43.179Z,7.80
2019-02-10T16:53:12.761Z,7.80
2019-02-10T16:55:41.595Z,7.80
2019-02-10T16:58:10.444Z,7.80
2019-02-10T17:00:40.145Z,7.80
2019-02-10T17:03:09.005Z,7.80
2019-02-10T17:05:37.855Z,7.80
2019-02-10T17:08:06.714Z,7.80
2019-02-10T17:10:35.555Z,7.80
2019-02-10T17:13:04.399Z,7.80
2019-02-10T17:15:33.242Z,7.90
2019-02-10T17:18:02.141Z,7.90
2019-02-10T17:20:31.718Z,7.80
2019-02-10T17:23:00.571Z,7.80
2019-02-10T17:25:29.422Z,7.80
2019-02-10T17:27:58.259Z,7.70
2019-02-10T17:30:27.274Z,7.80
2019-02-10T17:32:56.863Z,7.70
2019-02-10T17:35:25.747Z,7.80
2019-02-10T17:37:54.548Z,7.80
2019-02-10T17:43:14.416Z,7.80
2019-02-10T17:45:43.229Z,7.70
2019-02-10T17:48:12.084Z,7.70
2019-02-10T17:50:40.947Z,7.80
2019-02-10T17:53:09.795Z,7.70
2019-02-10T17:55:38.638Z,7.80
2019-02-10T17:58:07.483Z,7.80
2019-02-10T18:00:36.355Z,7.80
2019-02-10T18:03:05.206Z,7.80
2019-02-10T18:05:34.101Z,7.70
2019-02-10T18:08:02.963Z,7.70
2019-02-10T18:10:31.810Z,7.70
2019-02-10T18:13:00.661Z,7.70
2019-02-10T18:15:30.437Z,7.60
2019-02-10T18:18:01.258Z,7.60
2019-02-10T18:20:33.280Z,7.60
2019-02-10T18:23:05.602Z,7.60
2019-02-10T18:25:34.491Z,7.60
2019-02-10T18:28:03.403Z,7.60
2019-02-10T18:30:36.209Z,7.60
2019-02-10T18:33:05.749Z,7.60
2019-02-10T18:35:34.651Z,7.50
2019-02-10T18:38:08.180Z,7.50
2019-02-10T18:40:37.846Z,7.40
2019-02-10T18:43:07.829Z,7.30
2019-02-10T18:45:42.157Z,7.30
2019-02-10T18:48:11.904Z,7.30
2019-02-10T18:50:45.397Z,7.30
2019-02-10T18:53:15.254Z,7.30
2019-02-10T18:55:50.172Z,7.20
2019-02-10T18:58:19.106Z,7.20
2019-02-10T19:00:50.851Z,7.20
2019-02-10T19:03:19.800Z,7.20
2019-02-10T19:05:48.818Z,7.10
2019-02-10T19:08:18.562Z,7.10
2019-02-10T19:10:48.248Z,7.10
2019-02-10T19:13:19.147Z,7.10
2019-02-10T19:15:52.060Z,7.10
2019-02-10T19:18:23.836Z,7.20
2019-02-10T19:20:54.562Z,7.20
2019-02-10T19:23:25.364Z,7.20
2019-02-10T19:26:00.839Z,7.20
2019-02-10T19:28:33.376Z,7.20
2019-02-10T19:31:02.397Z,7.10
2019-02-10T19:33:37.515Z,6.90
2019-02-10T19:36:06.423Z,6.70
2019-02-10T19:38:36.145Z,6.60
2019-02-10T19:41:05.176Z,6.60
2019-02-10T19:43:34.080Z,6.50
2019-02-10T19:46:04.879Z,6.40
2019-02-10T19:48:35.771Z,6.40
2019-02-10T19:51:08.620Z,6.30
2019-02-10T19:53:37.707Z,6.30
2019-02-10T19:56:09.180Z,6.20
2019-02-10T19:58:43.538Z,6.20
2019-02-10T20:01:13.404Z,6.20
2019-02-10T20:03:43.256Z,6.10
2019-02-10T20:06:17.303Z,6.10
2019-02-10T20:08:51.896Z,6.10
2019-02-10T20:11:21.537Z,6.00
2019-02-10T20:13:50.461Z,6.00
2019-02-10T20:16:23.301Z,6.00
2019-02-10T20:18:54.546Z,6.00
2019-02-10T20:21:24.500Z,5.90
2019-02-10T20:23:58.939Z,5.90
2019-02-10T20:26:33.846Z,5.90
2019-02-10T20:29:06.707Z,5.90
2019-02-10T20:31:35.735Z,5.90
2019-02-10T20:34:04.817Z,5.90
2019-02-10T20:36:34.519Z,5.90
2019-02-10T20:39:03.482Z,5.90
2019-02-10T20:44:06.543Z,5.90
2019-02-10T20:46:35.463Z,5.90
2019-02-10T20:49:07.302Z,5.90
2019-02-10T20:51:41.552Z,5.90
2019-02-10T20:54:15.345Z,5.90
2019-02-10T20:56:45.198Z,5.90
2019-02-10T20:59:20.561Z,5.80
2019-02-10T21:01:53.435Z,5.90
2019-02-10T21:04:31.417Z,5.90
2019-02-10T21:07:02.401Z,5.90
2019-02-10T21:09:35.751Z,5.90
2019-02-10T21:12:05.524Z,6.00
2019-02-10T21:14:40.164Z,6.00
2019-02-10T21:17:14.459Z,6.00
2019-02-10T21:19:47.179Z,6.10
2019-02-10T21:22:16.798Z,6.10
2019-02-10T21:24:45.674Z,6.10
2019-02-10T21:27:14.503Z,6.10
2019-02-10T21:29:43.361Z,6.10
2019-02-10T21:32:13.095Z,6.10
2019-02-10T21:34:42.044Z,6.10
2019-02-10T21:37:10.852Z,6.20
2019-02-10T21:39:39.708Z,6.20
2019-02-10T21:42:08.588Z,6.20
2019-02-10T21:44:42.966Z,6.30
2019-02-10T21:47:12.690Z,6.20
2019-02-10T21:49:41.534Z,6.20
2019-02-10T21:52:10.416Z,6.30
2019-02-10T21:54:39.268Z,6.30
2019-02-10T21:57:08.126Z,6.30
2019-02-10T21:59:36.992Z,6.30
2019-02-10T22:02:05.860Z,6.30
2019-02-10T22:04:35.412Z,6.30
2019-02-10T22:07:04.273Z,6.30
2019-02-10T22:09:33.110Z,6.30
2019-02-10T22:12:01.995Z,6.30
2019-02-10T22:14:31.640Z,6.30
2019-02-10T22:17:01.199Z,6.40
2019-02-10T22:19:30.785Z,6.30
2019-02-10T22:22:00.952Z,6.40
2019-02-10T22:24:28.497Z,6.40
2019-02-10T22:26:58.091Z,6.40
2019-02-10T22:29:26.972Z,6.40
2019-02-10T22:31:55.846Z,6.40
2019-02-10T22:34:24.692Z,6.40
2019-02-10T22:36:53.602Z,6.40
2019-02-10T22:39:23.163Z,6.40
2019-02-10T22:41:52.773Z,6.40
2019-02-10T22:44:22.371Z,6.40
2019-02-10T22:46:51.210Z,6.40
2019-02-10T22:49:20.066Z,6.40
2019-02-10T22:51:48.895Z,6.40
2019-02-10T22:54:17.754Z,6.40
2019-02-10T22:56:46.601Z,6.40
2019-02-10T22:59:15.464Z,6.40
2019-02-10T23:01:44.274Z,6.40
2019-02-10T23:04:13.115Z,6.40
2019-02-10T23:06:41.965Z,6.40
2019-02-10T23:09:10.816Z,6.40
2019-02-10T23:11:39.649Z,6.40
2019-02-10T23:14:09.223Z,6.40
2019-02-10T23:16:38.056Z,6.40
2019-02-10T23:19:07.630Z,6.30
2019-02-10T23:21:36.472Z,6.30
2019-02-10T23:24:05.320Z,6.30
2019-02-10T23:26:34.182Z,6.20
2019-02-10T23:29:03.013Z,6.20
2019-02-10T23:31:33.172Z,6.30
2019-02-10T23:34:01.946Z,6.30
2019-02-10T23:36:30.787Z,6.30
2019-02-10T23:38:59.622Z,6.30
2019-02-10T23:41:28.484Z,6.30
2019-02-10T23:43:57.318Z,6.30
2019-02-10T23:46:26.173Z,6.30
2019-02-10T23:48:55.024Z,6.30
2019-02-10T23:51:24.271Z,6.30
2019-02-10T23:53:53.115Z,6.20
2019-02-10T23:56:21.952Z,6.30
2019-02-10T23:58:50.815Z,6.20
